createdAt,value
2018-01-19T00:01:39.960Z,82.40
2018-01-19T00:04:07.572Z,82.40
2018-01-19T00:06:35.131Z,82.40
2018-01-19T00:09:02.739Z,82.20
2018-01-19T00:11:30.317Z,82.50
2018-01-19T00:13:57.913Z,82.40
2018-01-19T00:16:25.516Z,82.30
2018-01-19T00:18:53.113Z,82.50
2018-01-19T00:21:20.692Z,82.20
2018-01-19T00:23:48.703Z,82.60
2018-01-19T00:26:16.250Z,82.60
2018-01-19T00:28:43.856Z,82.60
2018-01-19T00:31:11.471Z,82.70
2018-01-19T00:33:39.085Z,82.70
2018-01-19T00:36:06.698Z,83.00
2018-01-19T00:38:34.252Z,82.80
2018-01-19T00:41:01.901Z,82.90
2018-01-19T00:43:29.493Z,83.10
2018-01-19T00:45:57.480Z,83.40
2018-01-19T00:48:42.754Z,83.40
2018-01-19T00:51:10.404Z,83.80
2018-01-19T00:53:37.974Z,84.10
2018-01-19T00:56:05.566Z,84.60
2018-01-19T00:58:33.146Z,85.30
2018-01-19T01:01:00.764Z,85.50
2018-01-19T01:03:28.339Z,85.80
2018-01-19T01:05:55.936Z,85.90
2018-01-19T01:08:23.514Z,84.80
2018-01-19T01:10:51.102Z,85.10
2018-01-19T01:13:18.690Z,85.20
2018-01-19T01:15:46.327Z,85.60
2018-01-19T01:18:13.917Z,86.20
2018-01-19T01:20:41.499Z,86.20
2018-01-19T01:23:09.091Z,87.00
2018-01-19T01:25:36.746Z,86.80
2018-01-19T01:28:04.291Z,87.30
2018-01-19T01:30:31.858Z,88.00
2018-01-19T01:32:59.424Z,88.40
2018-01-19T01:35:27.058Z,88.70
2018-01-19T01:37:54.619Z,87.30
2018-01-19T01:40:22.248Z,88.40
2018-01-19T01:42:49.803Z,88.70
2018-01-19T01:45:17.392Z,89.30
2018-01-19T01:47:44.976Z,89.60
2018-01-19T01:50:12.554Z,90.00
2018-01-19T01:52:40.153Z,90.10
2018-01-19T01:55:07.759Z,90.10
2018-01-19T01:57:35.388Z,90.20
2018-01-19T02:00:02.960Z,90.10
2018-01-19T02:02:30.588Z,90.20
2018-01-19T02:04:58.171Z,90.10
2018-01-19T02:07:25.799Z,90.10
2018-01-19T02:09:53.353Z,90.20
2018-01-19T02:12:20.948Z,90.30
2018-01-19T02:14:48.513Z,90.20
2018-01-19T02:17:16.143Z,90.10
2018-01-19T02:19:43.708Z,90.10
2018-01-19T02:22:11.290Z,90.10
2018-01-19T02:24:38.835Z,90.10
2018-01-19T02:27:06.426Z,90.00
2018-01-19T02:29:34.014Z,90.00
2018-01-19T02:32:01.594Z,89.90
2018-01-19T02:34:29.182Z,89.90
2018-01-19T02:36:56.791Z,89.70
2018-01-19T02:39:24.457Z,89.30
2018-01-19T02:41:52.066Z,88.90
2018-01-19T02:44:19.613Z,89.20
2018-01-19T02:46:47.228Z,88.60
2018-01-19T02:49:14.830Z,88.50
2018-01-19T02:51:42.425Z,88.50
2018-01-19T02:54:09.996Z,88.20
2018-01-19T02:56:37.570Z,87.70
2018-01-19T02:59:05.139Z,87.60
2018-01-19T03:01:34.679Z,87.20
2018-01-19T03:04:02.276Z,86.90
2018-01-19T03:06:29.854Z,86.90
2018-01-19T03:08:57.410Z,86.90
2018-01-19T03:11:24.979Z,86.90
2018-01-19T03:13:52.583Z,86.80
2018-01-19T03:16:20.200Z,86.90
2018-01-19T03:18:47.786Z,87.00
2018-01-19T03:21:15.380Z,87.30
2018-01-19T03:23:42.975Z,87.20
2018-01-19T03:26:10.560Z,87.10
2018-01-19T03:28:38.207Z,87.20
2018-01-19T03:31:05.806Z,87.20
2018-01-19T03:33:33.393Z,87.20
2018-01-19T03:36:01.008Z,87.20
2018-01-19T03:38:28.646Z,87.10
2018-01-19T03:40:56.288Z,87.10
2018-01-19T03:43:23.872Z,87.30
2018-01-19T03:45:51.500Z,87.20
2018-01-19T03:48:19.091Z,87.20
2018-01-19T03:50:46.682Z,87.20
2018-01-19T03:53:14.304Z,87.10
2018-01-19T03:55:41.868Z,87.10
2018-01-19T03:58:09.496Z,87.10
2018-01-19T04:00:37.083Z,87.20
2018-01-19T04:03:04.670Z,87.00
2018-01-19T04:05:32.650Z,86.80
2018-01-19T04:08:00.272Z,86.80
2018-01-19T04:10:27.854Z,86.70
2018-01-19T04:12:55.487Z,86.70
2018-01-19T04:15:23.049Z,86.60
2018-01-19T04:17:50.616Z,86.60
2018-01-19T04:20:18.200Z,86.60
2018-01-19T04:22:45.842Z,86.70
2018-01-19T04:25:13.475Z,86.70
2018-01-19T04:27:41.035Z,86.70
2018-01-19T04:30:08.629Z,86.70
2018-01-19T04:32:36.234Z,86.60
2018-01-19T04:35:03.827Z,86.60
2018-01-19T04:37:31.396Z,86.70
2018-01-19T04:39:58.981Z,86.70
2018-01-19T04:42:26.932Z,86.60
2018-01-19T04:44:54.523Z,86.70
2018-01-19T04:47:22.067Z,86.70
2018-01-19T04:49:49.664Z,86.60
2018-01-19T04:52:17.252Z,86.70
2018-01-19T04:54:45.332Z,86.80
2018-01-19T04:57:13.324Z,86.70
2018-01-19T04:59:40.907Z,86.80
2018-01-19T05:02:08.451Z,86.70
2018-01-19T05:04:36.014Z,86.70
2018-01-19T05:07:03.596Z,86.50
2018-01-19T05:09:31.176Z,86.30
2018-01-19T05:11:58.748Z,85.80
2018-01-19T05:14:26.767Z,85.50
2018-01-19T05:16:54.441Z,85.50
2018-01-19T05:19:22.040Z,85.30
2018-01-19T05:21:50.019Z,85.50
2018-01-19T05:24:17.612Z,85.50
2018-01-19T05:26:45.234Z,85.40
2018-01-19T05:29:12.841Z,85.50
2018-01-19T05:31:40.439Z,85.90
2018-01-19T05:34:07.994Z,86.20
2018-01-19T05:36:35.606Z,86.20
2018-01-19T05:39:03.178Z,86.00
2018-01-19T05:41:30.780Z,86.00
2018-01-19T05:43:58.374Z,85.70
2018-01-19T05:46:25.938Z,85.00
2018-01-19T05:48:53.540Z,84.40
2018-01-19T05:51:21.112Z,84.20
2018-01-19T05:53:49.098Z,84.10
2018-01-19T05:56:16.683Z,84.10
2018-01-19T05:58:44.247Z,84.00
2018-01-19T06:01:11.834Z,83.20
2018-01-19T06:03:39.422Z,83.10
2018-01-19T06:06:07.022Z,83.20
2018-01-19T06:08:34.799Z,83.10
2018-01-19T06:11:03.711Z,83.60
2018-01-19T06:13:31.735Z,83.40
2018-01-19T06:16:00.023Z,83.40
2018-01-19T06:18:27.686Z,83.50
2018-01-19T06:20:55.297Z,83.50
2018-01-19T06:23:22.876Z,83.40
2018-01-19T06:25:50.461Z,83.60
2018-01-19T06:28:18.048Z,83.80
2018-01-19T06:30:45.688Z,83.90
2018-01-19T06:33:13.572Z,84.00
2018-01-19T06:35:41.717Z,84.00
2018-01-19T06:38:09.679Z,84.00
2018-01-19T06:40:37.310Z,83.90
2018-01-19T06:43:04.876Z,83.10
2018-01-19T06:45:32.475Z,82.90
2018-01-19T06:48:00.061Z,83.00
2018-01-19T06:50:27.683Z,82.90
2018-01-19T06:52:55.262Z,82.70
2018-01-19T06:55:22.818Z,82.80
2018-01-19T06:57:50.451Z,82.60
2018-01-19T07:00:18.021Z,82.60
2018-01-19T07:02:45.622Z,82.40
2018-01-19T07:05:13.625Z,82.40
2018-01-19T07:07:41.248Z,82.40
2018-01-19T07:10:08.811Z,82.60
2018-01-19T07:12:36.413Z,82.60
2018-01-19T07:15:03.977Z,82.80
2018-01-19T07:17:31.578Z,82.50
2018-01-19T07:19:59.138Z,82.40
2018-01-19T07:22:26.741Z,82.40
2018-01-19T07:24:54.316Z,82.10
2018-01-19T07:27:21.899Z,81.90
2018-01-19T07:29:49.478Z,81.70
2018-01-19T07:32:17.492Z,82.20
2018-01-19T07:34:45.073Z,82.20
2018-01-19T07:37:12.710Z,82.10
2018-01-19T07:39:40.303Z,82.00
2018-01-19T07:42:07.910Z,81.90
2018-01-19T07:44:35.488Z,82.20
2018-01-19T07:47:03.086Z,81.70
2018-01-19T07:49:30.644Z,81.60
2018-01-19T07:51:58.268Z,81.60
2018-01-19T07:54:25.893Z,81.40
2018-01-19T07:56:53.448Z,80.90
2018-01-19T07:59:21.044Z,80.60
2018-01-19T08:01:48.623Z,81.10
2018-01-19T08:04:16.232Z,81.30
2018-01-19T08:06:43.816Z,81.70
2018-01-19T08:09:11.402Z,83.80
2018-01-19T08:11:38.981Z,85.00
2018-01-19T08:14:06.552Z,85.90
2018-01-19T08:16:34.157Z,86.40
2018-01-19T08:19:01.750Z,86.90
2018-01-19T08:21:29.306Z,86.70
2018-01-19T08:23:56.972Z,86.80
2018-01-19T08:26:24.586Z,86.00
2018-01-19T08:28:52.186Z,85.10
2018-01-19T08:31:19.793Z,85.00
2018-01-19T08:33:47.396Z,84.30
2018-01-19T08:36:14.994Z,84.20
2018-01-19T08:38:42.588Z,84.40
2018-01-19T08:41:10.173Z,84.40
2018-01-19T08:43:37.812Z,84.00
2018-01-19T08:46:05.400Z,83.70
2018-01-19T08:48:33.026Z,83.60
2018-01-19T08:51:00.589Z,82.90
2018-01-19T08:53:28.176Z,82.10
2018-01-19T08:55:55.772Z,81.50
2018-01-19T08:58:23.372Z,81.30
2018-01-19T09:00:50.934Z,80.70
2018-01-19T09:03:18.525Z,80.30
2018-01-19T09:05:46.088Z,80.60
2018-01-19T09:08:13.824Z,80.00
2018-01-19T09:10:41.436Z,79.70
2018-01-19T09:13:09.029Z,79.50
2018-01-19T09:15:36.604Z,78.60
2018-01-19T09:18:04.210Z,78.40
2018-01-19T09:20:31.774Z,78.50
2018-01-19T09:22:59.334Z,78.10
2018-01-19T09:25:26.948Z,77.90
2018-01-19T09:27:54.554Z,78.30
2018-01-19T09:30:22.148Z,78.00
2018-01-19T09:32:49.710Z,77.90
2018-01-19T09:35:17.341Z,78.40
2018-01-19T09:37:45.041Z,78.40
2018-01-19T09:40:12.591Z,78.60
2018-01-19T09:42:40.250Z,77.90
2018-01-19T09:45:07.828Z,78.50
2018-01-19T09:47:35.412Z,78.10
2018-01-19T09:50:02.997Z,78.40
2018-01-19T09:52:30.549Z,78.80
2018-01-19T09:54:58.159Z,79.20
2018-01-19T09:57:25.723Z,78.50
2018-01-19T09:59:53.368Z,78.40
2018-01-19T10:02:20.948Z,78.50
2018-01-19T10:04:48.569Z,78.30
2018-01-19T10:07:16.240Z,78.80
2018-01-19T10:09:43.856Z,78.90
2018-01-19T10:12:11.453Z,79.40
2018-01-19T10:14:39.054Z,79.30
2018-01-19T10:17:06.630Z,79.20
2018-01-19T10:19:34.209Z,79.30
2018-01-19T10:22:01.859Z,79.60
2018-01-19T10:24:29.490Z,80.00
2018-01-19T10:26:57.084Z,80.30
2018-01-19T10:29:24.674Z,79.90
2018-01-19T10:31:52.236Z,80.30
2018-01-19T10:34:19.874Z,81.00
2018-01-19T10:36:47.510Z,81.00
2018-01-19T10:39:15.114Z,81.20
2018-01-19T10:41:42.754Z,81.20
2018-01-19T10:44:10.297Z,81.90
2018-01-19T10:46:37.927Z,82.70
2018-01-19T10:49:05.507Z,83.20
2018-01-19T10:51:33.091Z,83.60
2018-01-19T10:54:00.680Z,82.60
2018-01-19T10:56:28.295Z,82.70
2018-01-19T10:58:55.849Z,82.50
2018-01-19T11:01:23.456Z,82.50
2018-01-19T11:03:51.038Z,81.60
2018-01-19T11:06:18.653Z,81.30
2018-01-19T11:08:46.599Z,81.70
2018-01-19T11:11:14.178Z,81.70
2018-01-19T11:13:41.764Z,82.10
2018-01-19T11:16:09.768Z,81.40
2018-01-19T11:18:37.384Z,81.40
2018-01-19T11:21:04.984Z,81.40
2018-01-19T11:23:32.545Z,80.90
2018-01-19T11:26:00.153Z,80.60
2018-01-19T11:28:27.752Z,80.80
2018-01-19T11:30:55.380Z,80.10
2018-01-19T11:33:22.995Z,80.30
2018-01-19T11:35:50.596Z,79.70
2018-01-19T11:38:18.144Z,79.70
2018-01-19T11:40:45.732Z,79.30
2018-01-19T11:43:13.339Z,79.30
2018-01-19T11:45:51.656Z,78.60
2018-01-19T11:48:19.237Z,78.00
2018-01-19T11:50:46.799Z,78.50
2018-01-19T11:53:14.411Z,77.60
2018-01-19T11:55:42.002Z,78.70
2018-01-19T11:58:09.604Z,79.10
2018-01-19T12:00:37.170Z,79.10
2018-01-19T12:03:04.784Z,80.00
2018-01-19T12:05:32.365Z,81.30
2018-01-19T12:07:59.972Z,80.30
2018-01-19T12:10:27.586Z,80.20
2018-01-19T12:12:55.170Z,80.50
2018-01-19T12:15:22.743Z,80.20
2018-01-19T12:17:50.318Z,80.20
2018-01-19T12:20:17.882Z,80.00
2018-01-19T12:22:45.484Z,79.80
2018-01-19T12:25:13.040Z,79.80
2018-01-19T12:27:40.678Z,79.60
2018-01-19T12:30:08.262Z,78.70
2018-01-19T12:32:35.869Z,78.30
2018-01-19T12:35:03.434Z,78.20
2018-01-19T12:37:35.097Z,78.30
2018-01-19T12:40:02.696Z,77.40
2018-01-19T12:42:30.311Z,76.80
2018-01-19T12:44:57.910Z,77.60
2018-01-19T12:47:25.471Z,78.20
2018-01-19T12:49:53.065Z,78.10
2018-01-19T12:52:20.689Z,77.00
2018-01-19T12:54:48.260Z,77.90
2018-01-19T12:57:15.822Z,77.60
2018-01-19T12:59:43.388Z,78.10
2018-01-19T13:02:10.979Z,77.70
2018-01-19T13:04:38.556Z,76.40
2018-01-19T13:07:06.193Z,77.40
2018-01-19T13:09:33.775Z,77.40
2018-01-19T13:12:01.319Z,77.70
2018-01-19T13:14:28.916Z,78.00
2018-01-19T13:16:56.476Z,77.80
2018-01-19T13:19:24.078Z,78.40
2018-01-19T13:21:51.753Z,78.60
2018-01-19T13:24:19.801Z,78.80
2018-01-19T13:26:47.384Z,78.80
2018-01-19T13:29:15.011Z,78.10
2018-01-19T13:31:42.564Z,78.50
2018-01-19T13:34:10.158Z,77.60
2018-01-19T13:36:37.755Z,78.00
2018-01-19T13:39:05.372Z,78.10
2018-01-19T13:41:32.951Z,78.20
2018-01-19T13:44:00.938Z,79.10
2018-01-19T13:46:28.610Z,79.10
2018-01-19T13:48:56.259Z,79.20
2018-01-19T13:51:23.834Z,79.20
2018-01-19T13:53:51.575Z,79.40
2018-01-19T13:56:19.120Z,79.10
2018-01-19T13:58:46.696Z,79.60
2018-01-19T14:01:14.322Z,79.50
2018-01-19T14:03:41.915Z,80.30
2018-01-19T14:06:09.464Z,81.10
2018-01-19T14:08:37.082Z,81.40
2018-01-19T14:11:04.657Z,82.50
2018-01-19T14:13:32.244Z,83.20
2018-01-19T14:15:59.813Z,84.40
2018-01-19T14:18:27.362Z,85.50
2018-01-19T14:20:54.963Z,85.60
2018-01-19T14:23:22.598Z,86.40
2018-01-19T14:25:50.162Z,86.70
2018-01-19T14:28:17.754Z,86.90
2018-01-19T14:30:45.375Z,87.30
2018-01-19T14:33:12.938Z,87.60
2018-01-19T14:35:40.527Z,87.80
2018-01-19T14:38:08.108Z,88.10
2018-01-19T14:40:35.702Z,88.90
2018-01-19T14:43:03.239Z,88.80
2018-01-19T14:45:31.218Z,89.70
2018-01-19T14:47:59.646Z,89.70
2018-01-19T14:50:30.288Z,89.80
2018-01-19T14:52:57.947Z,89.50
2018-01-19T14:55:25.595Z,89.50
2018-01-19T14:57:53.378Z,90.00
2018-01-19T15:00:20.972Z,89.80
2018-01-19T15:02:49.705Z,89.80
2018-01-19T15:05:17.402Z,90.00
2018-01-19T15:07:45.126Z,90.10
2018-01-19T15:10:12.790Z,90.10
2018-01-19T15:12:40.377Z,90.10
2018-01-19T15:15:07.968Z,90.20
2018-01-19T15:17:35.560Z,90.20
2018-01-19T15:20:03.170Z,90.00
2018-01-19T15:22:34.559Z,89.90
2018-01-19T15:25:02.158Z,89.60
2018-01-19T15:27:29.708Z,89.70
2018-01-19T15:29:57.295Z,89.60
2018-01-19T15:32:24.901Z,89.70
2018-01-19T15:34:52.454Z,89.90
2018-01-19T15:37:20.452Z,89.90
2018-01-19T15:39:48.031Z,89.90
2018-01-19T15:42:16.016Z,90.00
2018-01-19T15:44:46.916Z,90.10
2018-01-19T15:47:14.560Z,90.10
2018-01-19T15:49:42.166Z,90.30
2018-01-19T15:52:09.745Z,90.50
2018-01-19T15:54:37.409Z,90.50
2018-01-19T15:57:05.143Z,90.50
2018-01-19T15:59:33.912Z,90.50
2018-01-19T16:02:02.217Z,90.60
2018-01-19T16:04:29.899Z,90.60
2018-01-19T16:06:57.479Z,90.70
2018-01-19T16:09:25.040Z,90.50
2018-01-19T16:11:52.642Z,90.60
2018-01-19T16:14:20.218Z,90.60
2018-01-19T16:16:47.822Z,90.60
2018-01-19T16:19:15.403Z,90.80
2018-01-19T16:21:43.401Z,90.40
2018-01-19T16:24:10.978Z,90.40
2018-01-19T16:26:38.576Z,90.40
2018-01-19T16:29:06.204Z,90.50
2018-01-19T16:31:33.791Z,90.50
2018-01-19T16:34:11.473Z,90.60
2018-01-19T16:36:39.062Z,90.60
2018-01-19T16:39:06.665Z,90.70
2018-01-19T16:41:34.262Z,90.70
2018-01-19T16:44:01.892Z,90.90
2018-01-19T16:46:29.572Z,90.90
2018-01-19T16:48:57.195Z,90.90
2018-01-19T16:51:24.797Z,91.00
2018-01-19T16:53:52.431Z,91.10
2018-01-19T16:56:20.005Z,91.10
2018-01-19T16:58:47.606Z,91.10
2018-01-19T17:01:15.619Z,91.00
2018-01-19T17:03:43.229Z,91.10
2018-01-19T17:06:10.844Z,91.10
2018-01-19T17:08:38.444Z,91.10
2018-01-19T17:11:06.019Z,91.00
2018-01-19T17:13:33.636Z,91.10
2018-01-19T17:16:01.211Z,90.50
2018-01-19T17:18:28.845Z,90.70
2018-01-19T17:20:58.019Z,90.70
2018-01-19T17:23:25.672Z,90.30
2018-01-19T17:25:53.249Z,90.50
2018-01-19T17:28:20.842Z,90.70
2018-01-19T17:30:48.395Z,90.50
2018-01-19T17:33:16.026Z,90.80
2018-01-19T17:35:43.631Z,90.90
2018-01-19T17:38:11.205Z,91.00
2018-01-19T17:40:47.682Z,91.20
2018-01-19T17:43:15.392Z,91.30
2018-01-19T17:45:42.950Z,91.20
2018-01-19T17:48:10.559Z,91.30
2018-01-19T17:50:38.185Z,91.30
2018-01-19T17:53:05.780Z,91.30
2018-01-19T17:55:33.395Z,91.30
2018-01-19T17:58:01.012Z,91.30
2018-01-19T18:00:28.585Z,91.10
2018-01-19T18:02:56.195Z,91.10
2018-01-19T18:05:24.148Z,91.00
2018-01-19T18:07:51.730Z,91.00
2018-01-19T18:10:19.343Z,90.80
2018-01-19T18:12:46.923Z,90.80
2018-01-19T18:15:14.533Z,91.00
2018-01-19T18:17:42.082Z,91.10
2018-01-19T18:20:09.686Z,91.10
2018-01-19T18:22:37.348Z,91.20
2018-01-19T18:25:05.139Z,91.20
2018-01-19T18:27:32.714Z,91.20
2018-01-19T18:30:00.353Z,91.20
2018-01-19T18:32:28.366Z,91.20
2018-01-19T18:34:56.031Z,91.20
2018-01-19T18:37:23.621Z,91.20
2018-01-19T18:39:51.271Z,91.20
2018-01-19T18:42:19.231Z,91.20
2018-01-19T18:44:46.874Z,91.20
2018-01-19T18:47:14.415Z,91.10
2018-01-19T18:49:42.052Z,91.10
2018-01-19T18:52:10.276Z,91.30
2018-01-19T18:54:37.912Z,91.30
2018-01-19T18:57:05.530Z,91.30
2018-01-19T18:59:33.549Z,91.40
2018-01-19T19:02:01.148Z,91.40
2018-01-19T19:04:28.745Z,91.50
2018-01-19T19:06:56.374Z,91.50
2018-01-19T19:09:24.010Z,91.50
2018-01-19T19:11:51.581Z,91.50
2018-01-19T19:14:26.985Z,91.50
2018-01-19T19:16:54.602Z,91.50
2018-01-19T19:19:22.201Z,91.60
2018-01-19T19:21:49.843Z,91.60
2018-01-19T19:24:17.470Z,91.70
2018-01-19T19:26:45.088Z,91.80
2018-01-19T19:29:14.099Z,91.90
2018-01-19T19:31:41.710Z,92.00
2018-01-19T19:34:09.278Z,92.00
2018-01-19T19:36:41.747Z,92.10
2018-01-19T19:39:09.344Z,92.00
2018-01-19T19:41:37.790Z,92.10
2018-01-19T19:44:05.377Z,92.00
2018-01-19T19:46:32.953Z,92.00
2018-01-19T19:49:00.595Z,92.00
2018-01-19T19:51:28.176Z,92.00
2018-01-19T19:53:55.832Z,92.00
2018-01-19T19:56:23.421Z,92.10
2018-01-19T19:58:51.066Z,92.10
2018-01-19T20:01:18.645Z,92.20
2018-01-19T20:03:46.247Z,92.50
2018-01-19T20:06:13.956Z,92.80
2018-01-19T20:08:41.934Z,93.00
2018-01-19T20:11:09.579Z,92.90
2018-01-19T20:13:37.170Z,92.70
2018-01-19T20:16:04.766Z,92.40
2018-01-19T20:18:32.403Z,92.20
2018-01-19T20:21:00.053Z,92.10
2018-01-19T20:23:27.658Z,91.80
2018-01-19T20:25:55.210Z,91.60
2018-01-19T20:28:22.840Z,91.20
2018-01-19T20:30:50.492Z,90.70
2018-01-19T20:33:18.114Z,90.30
2018-01-19T20:35:45.770Z,90.10
2018-01-19T20:38:13.340Z,90.20
2018-01-19T20:40:41.314Z,90.10
2018-01-19T20:43:08.937Z,90.10
2018-01-19T20:45:36.518Z,90.10
2018-01-19T20:48:04.148Z,90.10
2018-01-19T20:50:31.728Z,90.20
2018-01-19T20:52:59.371Z,90.20
2018-01-19T20:55:26.979Z,90.30
2018-01-19T20:57:54.595Z,90.10
2018-01-19T21:00:22.267Z,90.10
2018-01-19T21:02:50.370Z,90.10
2018-01-19T21:05:17.987Z,89.50
2018-01-19T21:07:45.639Z,89.80
2018-01-19T21:10:13.330Z,89.70
2018-01-19T21:12:41.335Z,89.80
2018-01-19T21:15:08.936Z,89.80
2018-01-19T21:17:36.572Z,89.90
2018-01-19T21:20:04.139Z,89.80
2018-01-19T21:22:31.777Z,90.00
2018-01-19T21:24:59.393Z,89.90
2018-01-19T21:27:27.040Z,89.10
2018-01-19T21:29:54.695Z,89.30
2018-01-19T21:32:22.773Z,88.90
2018-01-19T21:34:50.436Z,88.90
2018-01-19T21:37:18.093Z,89.10
2018-01-19T21:39:45.705Z,88.90
2018-01-19T21:42:13.307Z,89.10
2018-01-19T21:44:40.949Z,89.40
2018-01-19T21:47:08.603Z,89.40
2018-01-19T21:49:37.902Z,89.30
2018-01-19T21:52:06.306Z,89.50
2018-01-19T21:54:33.951Z,89.60
2018-01-19T21:57:01.606Z,89.50
2018-01-19T21:59:29.277Z,89.80
2018-01-19T22:01:57.079Z,89.80
2018-01-19T22:04:24.677Z,89.70
2018-01-19T22:06:52.541Z,89.60
2018-01-19T22:09:20.213Z,89.50
2018-01-19T22:11:48.070Z,89.50
2018-01-19T22:14:15.834Z,89.40
2018-01-19T22:16:45.970Z,89.50
2018-01-19T22:19:13.675Z,89.70
2018-01-19T22:21:41.280Z,89.60
2018-01-19T22:24:08.953Z,89.60
2018-01-19T22:26:36.568Z,89.60
2018-01-19T22:29:04.293Z,89.70
2018-01-19T22:31:31.901Z,89.60
2018-01-19T22:33:59.590Z,89.50
2018-01-19T22:36:27.205Z,89.40
2018-01-19T22:38:54.796Z,89.20
2018-01-19T22:41:22.432Z,89.10
2018-01-19T22:43:50.086Z,89.10
2018-01-19T22:46:17.892Z,89.20
2018-01-19T22:48:45.546Z,89.10
2018-01-19T22:51:13.175Z,89.20
2018-01-19T22:53:40.813Z,89.30
2018-01-19T22:56:08.461Z,89.30
2018-01-19T22:58:44.421Z,89.80
2018-01-19T23:01:12.411Z,89.70
2018-01-19T23:03:40.064Z,89.70
2018-01-19T23:06:07.618Z,89.80
2018-01-19T23:08:35.261Z,89.80
2018-01-19T23:11:02.909Z,89.90
2018-01-19T23:13:30.572Z,89.80
2018-01-19T23:15:58.161Z,89.90
2018-01-19T23:18:25.789Z,89.70
2018-01-19T23:20:53.390Z,89.80
2018-01-19T23:23:21.032Z,89.80
2018-01-19T23:25:48.583Z,89.50
2018-01-19T23:28:16.144Z,89.50
2018-01-19T23:30:43.796Z,89.30
2018-01-19T23:33:11.836Z,88.70
2018-01-19T23:35:39.426Z,88.70
2018-01-19T23:38:07.070Z,88.70
2018-01-19T23:40:34.710Z,88.40
2018-01-19T23:43:02.337Z,88.60
2018-01-19T23:45:29.988Z,88.60
2018-01-19T23:47:57.646Z,88.50
2018-01-19T23:50:25.286Z,88.40
2018-01-19T23:52:53.310Z,88.10
2018-01-19T23:55:20.936Z,88.10
2018-01-19T23:57:48.544Z,88.10
